sensor_id;sensor_type;location;lat;lon;timestamp;temperature;humidity
3360;DHT22;1693;49.602;11.046;2023-08-31T00:00:10;13.50;99.90
3360;DHT22;1693;49.602;11.046;2023-08-31T00:02:38;13.40;99.90
3360;DHT22;1693;49.602;11.046;2023-08-31T00:05:07;13.50;99.90
3360;DHT22;1693;49.602;11.046;2023-08-31T00:07:34;13.50;99.90
3360;DHT22;1693;49.602;11.046;2023-08-31T00:10:03;13.50;99.90
3360;DHT22;1693;49.602;11.046;2023-08-31T00:12:35;13.60;99.90
3360;DHT22;1693;49.602;11.046;2023-08-31T00:15:03;13.60;99.90
3360;DHT22;1693;49.602;11.046;2023-08-31T00:17:31;13.70;99.90
3360;DHT22;1693;49.602;11.046;2023-08-31T00:19:58;13.50;99.90
3360;DHT22;1693;49.602;11.046;2023-08-31T00:22:25;13.50;99.90
3360;DHT22;1693;49.602;11.046;2023-08-31T00:24:52;13.50;99.90
3360;DHT22;1693;49.602;11.046;2023-08-31T00:27:21;13.50;99.90
3360;DHT22;1693;49.602;11.046;2023-08-31T00:29:48;13.60;99.90
3360;DHT22;1693;49.602;11.046;2023-08-31T00:32:16;13.60;99.90
3360;DHT22;1693;49.602;11.046;2023-08-31T00:34:44;13.60;99.90
3360;DHT22;1693;49.602;11.046;2023-08-31T00:37:11;13.40;99.90
3360;DHT22;1693;49.602;11.046;2023-08-31T00:39:38;13.30;99.90
3360;DHT22;1693;49.602;11.046;2023-08-31T00:42:05;13.30;99.90
3360;DHT22;1693;49.602;11.046;2023-08-31T00:44:34;13.40;99.90
3360;DHT22;1693;49.602;11.046;2023-08-31T00:47:01;13.40;99.90
3360;DHT22;1693;49.602;11.046;2023-08-31T00:49:28;13.30;99.90
3360;DHT22;1693;49.602;11.046;2023-08-31T00:51:57;13.40;99.90
3360;DHT22;1693;49.602;11.046;2023-08-31T00:54:24;13.40;99.90
3360;DHT22;1693;49.602;11.046;2023-08-31T00:56:53;13.50;99.90
3360;DHT22;1693;49.602;11.046;2023-08-31T00:59:20;13.60;99.90
3360;DHT22;1693;49.602;11.046;2023-08-31T01:01:54;13.60;99.90
3360;DHT22;1693;49.602;11.046;2023-08-31T01:04:32;13.60;99.90
3360;DHT22;1693;49.602;11.046;2023-08-31T01:07:04;13.70;99.90
3360;DHT22;1693;49.602;11.046;2023-08-31T01:09:36;13.70;99.90
3360;DHT22;1693;49.602;11.046;2023-08-31T01:12:07;13.80;99.90
3360;DHT22;1693;49.602;11.046;2023-08-31T01:14:40;13.80;99.90
3360;DHT22;1693;49.602;11.046;2023-08-31T01:17:12;13.70;99.90
3360;DHT22;1693;49.602;11.046;2023-08-31T01:19:48;13.80;99.90
3360;DHT22;1693;49.602;11.046;2023-08-31T01:22:21;13.80;99.90
3360;DHT22;1693;49.602;11.046;2023-08-31T01:24:53;13.90;99.90
3360;DHT22;1693;49.602;11.046;2023-08-31T01:27:21;13.80;99.90
3360;DHT22;1693;49.602;11.046;2023-08-31T01:29:48;13.80;99.90
3360;DHT22;1693;49.602;11.046;2023-08-31T01:32:15;13.90;99.90
3360;DHT22;1693;49.602;11.046;2023-08-31T01:34:44;13.90;99.90
3360;DHT22;1693;49.602;11.046;2023-08-31T01:37:14;13.80;99.90
3360;DHT22;1693;49.602;11.046;2023-08-31T01:39:47;13.90;99.90
3360;DHT22;1693;49.602;11.046;2023-08-31T01:42:17;13.90;99.90
3360;DHT22;1693;49.602;11.046;2023-08-31T01:44:45;13.80;99.90
3360;DHT22;1693;49.602;11.046;2023-08-31T01:47:15;13.80;99.90
3360;DHT22;1693;49.602;11.046;2023-08-31T01:49:45;13.70;99.90
3360;DHT22;1693;49.602;11.046;2023-08-31T01:52:12;13.70;99.90
3360;DHT22;1693;49.602;11.046;2023-08-31T01:54:39;13.60;99.90
3360;DHT22;1693;49.602;11.046;2023-08-31T01:57:06;13.70;99.90
3360;DHT22;1693;49.602;11.046;2023-08-31T01:59:34;13.70;99.90
3360;DHT22;1693;49.602;11.046;2023-08-31T02:02:01;13.70;99.90
3360;DHT22;1693;49.602;11.046;2023-08-31T02:04:29;13.80;99.90
3360;DHT22;1693;49.602;11.046;2023-08-31T02:06:56;13.70;99.90
3360;DHT22;1693;49.602;11.046;2023-08-31T02:11:52;14.00;99.90
3360;DHT22;1693;49.602;11.046;2023-08-31T02:14:19;13.90;99.90
3360;DHT22;1693;49.602;11.046;2023-08-31T07:13:14;14.90;99.90
3360;DHT22;1693;49.602;11.046;2023-08-31T07:15:41;14.90;99.90
3360;DHT22;1693;49.602;11.046;2023-08-31T07:18:09;15.00;99.90
3360;DHT22;1693;49.602;11.046;2023-08-31T07:20:36;15.00;99.90
3360;DHT22;1693;49.602;11.046;2023-08-31T07:23:04;15.20;99.90
3360;DHT22;1693;49.602;11.046;2023-08-31T07:25:31;15.30;99.90
3360;DHT22;1693;49.602;11.046;2023-08-31T07:27:59;15.50;99.90
3360;DHT22;1693;49.602;11.046;2023-08-31T07:30:26;15.50;99.90
3360;DHT22;1693;49.602;11.046;2023-08-31T07:32:53;15.70;99.90
3360;DHT22;1693;49.602;11.046;2023-08-31T07:35:20;15.70;99.90
3360;DHT22;1693;49.602;11.046;2023-08-31T07:37:47;15.80;99.90
3360;DHT22;1693;49.602;11.046;2023-08-31T07:40:14;15.90;99.90
3360;DHT22;1693;49.602;11.046;2023-08-31T07:42:41;16.10;99.90
3360;DHT22;1693;49.602;11.046;2023-08-31T07:45:10;16.40;99.90
3360;DHT22;1693;49.602;11.046;2023-08-31T07:47:37;16.50;99.90
3360;DHT22;1693;49.602;11.046;2023-08-31T07:50:05;16.40;99.90
3360;DHT22;1693;49.602;11.046;2023-08-31T07:52:32;16.20;99.90
3360;DHT22;1693;49.602;11.046;2023-08-31T07:55:00;16.20;99.90
3360;DHT22;1693;49.602;11.046;2023-08-31T07:57:27;16.30;99.90
3360;DHT22;1693;49.602;11.046;2023-08-31T07:59:54;16.30;99.90
3360;DHT22;1693;49.602;11.046;2023-08-31T08:02:22;16.40;99.90
3360;DHT22;1693;49.602;11.046;2023-08-31T08:04:49;16.40;99.90
3360;DHT22;1693;49.602;11.046;2023-08-31T08:07:16;16.20;99.90
3360;DHT22;1693;49.602;11.046;2023-08-31T08:09:43;16.40;99.90
3360;DHT22;1693;49.602;11.046;2023-08-31T08:12:10;16.30;99.90
3360;DHT22;1693;49.602;11.046;2023-08-31T08:14:37;16.40;99.90
3360;DHT22;1693;49.602;11.046;2023-08-31T08:17:04;16.30;99.90
3360;DHT22;1693;49.602;11.046;2023-08-31T08:19:33;16.30;99.90
3360;DHT22;1693;49.602;11.046;2023-08-31T08:22:00;16.20;99.90
3360;DHT22;1693;49.602;11.046;2023-08-31T08:24:27;16.30;99.90
3360;DHT22;1693;49.602;11.046;2023-08-31T08:26:53;16.60;99.90
3360;DHT22;1693;49.602;11.046;2023-08-31T08:29:20;16.90;99.90
3360;DHT22;1693;49.602;11.046;2023-08-31T08:31:47;17.10;99.90
3360;DHT22;1693;49.602;11.046;2023-08-31T08:34:14;16.80;99.90
3360;DHT22;1693;49.602;11.046;2023-08-31T08:36:43;16.70;99.90
3360;DHT22;1693;49.602;11.046;2023-08-31T08:39:10;16.70;99.90
3360;DHT22;1693;49.602;11.046;2023-08-31T08:41:37;16.70;99.90
3360;DHT22;1693;49.602;11.046;2023-08-31T08:44:07;16.70;99.90
3360;DHT22;1693;49.602;11.046;2023-08-31T08:46:35;16.70;99.90
3360;DHT22;1693;49.602;11.046;2023-08-31T08:49:03;16.70;99.90
3360;DHT22;1693;49.602;11.046;2023-08-31T08:51:31;16.80;99.90
3360;DHT22;1693;49.602;11.046;2023-08-31T08:54:00;17.00;99.90
3360;DHT22;1693;49.602;11.046;2023-08-31T08:56:28;17.20;99.90
3360;DHT22;1693;49.602;11.046;2023-08-31T08:58:55;17.10;99.90
3360;DHT22;1693;49.602;11.046;2023-08-31T09:01:23;16.90;99.90
3360;DHT22;1693;49.602;11.046;2023-08-31T09:03:52;16.70;99.90
3360;DHT22;1693;49.602;11.046;2023-08-31T09:06:19;16.80;99.90
3360;DHT22;1693;49.602;11.046;2023-08-31T09:08:53;17.00;99.90
3360;DHT22;1693;49.602;11.046;2023-08-31T09:11:22;17.20;99.90
3360;DHT22;1693;49.602;11.046;2023-08-31T09:13:49;17.30;99.90
3360;DHT22;1693;49.602;11.046;2023-08-31T09:16:27;17.30;99.90
3360;DHT22;1693;49.602;11.046;2023-08-31T09:18:54;17.50;99.90
3360;DHT22;1693;49.602;11.046;2023-08-31T09:21:21;17.40;99.90
3360;DHT22;1693;49.602;11.046;2023-08-31T09:23:59;17.30;99.90
3360;DHT22;1693;49.602;11.046;2023-08-31T09:26:28;17.20;99.90
3360;DHT22;1693;49.602;11.046;2023-08-31T09:28:56;17.30;99.90
3360;DHT22;1693;49.602;11.046;2023-08-31T09:31:32;17.60;99.90
3360;DHT22;1693;49.602;11.046;2023-08-31T09:34:01;17.80;99.90
3360;DHT22;1693;49.602;11.046;2023-08-31T09:36:29;17.80;99.90
3360;DHT22;1693;49.602;11.046;2023-08-31T09:38:58;17.60;99.90
3360;DHT22;1693;49.602;11.046;2023-08-31T09:41:56;17.40;99.90
3360;DHT22;1693;49.602;11.046;2023-08-31T09:47:44;17.60;99.90
3360;DHT22;1693;49.602;11.046;2023-08-31T09:50:11;17.60;99.90
3360;DHT22;1693;49.602;11.046;2023-08-31T09:52:39;17.80;99.90
3360;DHT22;1693;49.602;11.046;2023-08-31T09:55:08;17.80;99.90
3360;DHT22;1693;49.602;11.046;2023-08-31T09:57:37;17.70;99.90
3360;DHT22;1693;49.602;11.046;2023-08-31T10:00:05;17.70;99.90
3360;DHT22;1693;49.602;11.046;2023-08-31T10:02:33;17.80;99.90
3360;DHT22;1693;49.602;11.046;2023-08-31T10:05:01;18.30;99.90
3360;DHT22;1693;49.602;11.046;2023-08-31T10:07:29;18.50;99.90
3360;DHT22;1693;49.602;11.046;2023-08-31T10:09:57;18.80;99.90
3360;DHT22;1693;49.602;11.046;2023-08-31T10:12:25;18.60;99.90
3360;DHT22;1693;49.602;11.046;2023-08-31T10:14:55;18.40;99.90
3360;DHT22;1693;49.602;11.046;2023-08-31T10:17:23;18.30;99.90
3360;DHT22;1693;49.602;11.046;2023-08-31T10:19:51;18.10;99.90
3360;DHT22;1693;49.602;11.046;2023-08-31T10:22:19;18.00;99.90
3360;DHT22;1693;49.602;11.046;2023-08-31T10:24:58;17.90;99.90
3360;DHT22;1693;49.602;11.046;2023-08-31T10:27:26;17.80;99.90
3360;DHT22;1693;49.602;11.046;2023-08-31T10:29:54;17.70;99.90
3360;DHT22;1693;49.602;11.046;2023-08-31T10:32:21;17.60;99.90
3360;DHT22;1693;49.602;11.046;2023-08-31T10:35:08;17.70;99.90
3360;DHT22;1693;49.602;11.046;2023-08-31T10:37:36;17.90;99.90
3360;DHT22;1693;49.602;11.046;2023-08-31T10:40:09;18.00;99.90
3360;DHT22;1693;49.602;11.046;2023-08-31T10:42:44;18.10;99.90
3360;DHT22;1693;49.602;11.046;2023-08-31T10:45:13;18.10;99.90
3360;DHT22;1693;49.602;11.046;2023-08-31T10:47:41;18.20;99.90
3360;DHT22;1693;49.602;11.046;2023-08-31T10:50:19;18.40;99.90
3360;DHT22;1693;49.602;11.046;2023-08-31T10:52:48;18.40;99.90
3360;DHT22;1693;49.602;11.046;2023-08-31T10:55:16;18.40;99.90
3360;DHT22;1693;49.602;11.046;2023-08-31T10:57:43;18.30;99.90
3360;DHT22;1693;49.602;11.046;2023-08-31T11:00:13;18.20;99.90
3360;DHT22;1693;49.602;11.046;2023-08-31T11:02:43;18.30;99.90
3360;DHT22;1693;49.602;11.046;2023-08-31T11:05:11;18.60;99.90
3360;DHT22;1693;49.602;11.046;2023-08-31T11:07:40;19.10;99.90
3360;DHT22;1693;49.602;11.046;2023-08-31T11:10:13;19.40;99.90
3360;DHT22;1693;49.602;11.046;2023-08-31T11:12:41;19.40;99.90
3360;DHT22;1693;49.602;11.046;2023-08-31T11:15:10;19.00;99.90
3360;DHT22;1693;49.602;11.046;2023-08-31T11:17:39;18.70;99.90
3360;DHT22;1693;49.602;11.046;2023-08-31T11:20:07;18.60;99.90
3360;DHT22;1693;49.602;11.046;2023-08-31T11:22:38;18.20;99.90
3360;DHT22;1693;49.602;11.046;2023-08-31T11:25:06;18.20;99.90
3360;DHT22;1693;49.602;11.046;2023-08-31T11:27:34;18.10;99.90
3360;DHT22;1693;49.602;11.046;2023-08-31T11:30:01;18.00;99.90
3360;DHT22;1693;49.602;11.046;2023-08-31T11:32:28;17.90;99.90
3360;DHT22;1693;49.602;11.046;2023-08-31T11:34:57;17.90;99.90
3360;DHT22;1693;49.602;11.046;2023-08-31T11:37:24;18.40;99.90
3360;DHT22;1693;49.602;11.046;2023-08-31T11:39:53;18.80;99.90
3360;DHT22;1693;49.602;11.046;2023-08-31T11:42:21;19.00;99.90
3360;DHT22;1693;49.602;11.046;2023-08-31T11:44:50;18.90;99.90
3360;DHT22;1693;49.602;11.046;2023-08-31T11:47:20;18.90;99.90
3360;DHT22;1693;49.602;11.046;2023-08-31T11:49:48;18.70;99.90
3360;DHT22;1693;49.602;11.046;2023-08-31T11:52:17;18.70;99.90
3360;DHT22;1693;49.602;11.046;2023-08-31T11:54:44;18.50;99.90
3360;DHT22;1693;49.602;11.046;2023-08-31T11:57:11;18.50;99.90
3360;DHT22;1693;49.602;11.046;2023-08-31T11:59:40;18.50;99.90
3360;DHT22;1693;49.602;11.046;2023-08-31T12:02:08;18.70;99.90
3360;DHT22;1693;49.602;11.046;2023-08-31T12:04:42;18.80;99.90
3360;DHT22;1693;49.602;11.046;2023-08-31T12:07:09;18.70;99.90
3360;DHT22;1693;49.602;11.046;2023-08-31T12:09:37;18.60;99.90
3360;DHT22;1693;49.602;11.046;2023-08-31T12:12:05;18.50;99.90
3360;DHT22;1693;49.602;11.046;2023-08-31T12:14:37;18.60;99.90
3360;DHT22;1693;49.602;11.046;2023-08-31T12:17:06;18.80;99.90
3360;DHT22;1693;49.602;11.046;2023-08-31T12:19:37;18.70;99.90
3360;DHT22;1693;49.602;11.046;2023-08-31T12:22:04;18.70;99.90
3360;DHT22;1693;49.602;11.046;2023-08-31T12:24:39;18.80;99.90
3360;DHT22;1693;49.602;11.046;2023-08-31T12:27:06;18.90;99.90
3360;DHT22;1693;49.602;11.046;2023-08-31T12:29:33;19.10;99.90
3360;DHT22;1693;49.602;11.046;2023-08-31T12:32:00;19.30;99.90
3360;DHT22;1693;49.602;11.046;2023-08-31T12:34:29;19.40;99.90
3360;DHT22;1693;49.602;11.046;2023-08-31T12:36:56;19.10;99.90
3360;DHT22;1693;49.602;11.046;2023-08-31T12:39:27;19.30;99.90
3360;DHT22;1693;49.602;11.046;2023-08-31T12:41:56;19.10;99.90
3360;DHT22;1693;49.602;11.046;2023-08-31T12:44:23;19.40;99.90
3360;DHT22;1693;49.602;11.046;2023-08-31T12:46:52;19.40;99.90
3360;DHT22;1693;49.602;11.046;2023-08-31T12:49:20;19.70;99.90
3360;DHT22;1693;49.602;11.046;2023-08-31T12:51:48;19.70;99.90
3360;DHT22;1693;49.602;11.046;2023-08-31T12:54:16;19.70;99.90
3360;DHT22;1693;49.602;11.046;2023-08-31T12:56:43;19.60;99.90
3360;DHT22;1693;49.602;11.046;2023-08-31T12:59:11;19.40;99.90
3360;DHT22;1693;49.602;11.046;2023-08-31T13:01:38;19.40;99.90
3360;DHT22;1693;49.602;11.046;2023-08-31T13:04:06;19.40;99.90
3360;DHT22;1693;49.602;11.046;2023-08-31T13:06:33;19.60;99.90
3360;DHT22;1693;49.602;11.046;2023-08-31T13:09:00;19.40;99.90
3360;DHT22;1693;49.602;11.046;2023-08-31T13:11:26;19.50;99.90
3360;DHT22;1693;49.602;11.046;2023-08-31T13:13:53;19.70;99.90
3360;DHT22;1693;49.602;11.046;2023-08-31T13:16:22;19.80;99.90
3360;DHT22;1693;49.602;11.046;2023-08-31T13:18:50;20.00;99.90
3360;DHT22;1693;49.602;11.046;2023-08-31T13:21:17;20.20;99.90
3360;DHT22;1693;49.602;11.046;2023-08-31T13:23:44;20.20;99.90
3360;DHT22;1693;49.602;11.046;2023-08-31T13:26:11;21.30;99.90
3360;DHT22;1693;49.602;11.046;2023-08-31T13:28:40;21.70;99.90
3360;DHT22;1693;49.602;11.046;2023-08-31T13:31:09;22.60;99.90
3360;DHT22;1693;49.602;11.046;2023-08-31T13:33:38;23.90;99.90
3360;DHT22;1693;49.602;11.046;2023-08-31T13:36:06;24.80;96.80
3360;DHT22;1693;49.602;11.046;2023-08-31T13:38:34;24.90;95.00
3360;DHT22;1693;49.602;11.046;2023-08-31T13:41:01;25.40;94.20
3360;DHT22;1693;49.602;11.046;2023-08-31T13:43:29;24.80;92.80
3360;DHT22;1693;49.602;11.046;2023-08-31T13:45:55;25.20;92.40
3360;DHT22;1693;49.602;11.046;2023-08-31T13:48:23;27.00;91.40
3360;DHT22;1693;49.602;11.046;2023-08-31T13:50:51;27.90;85.60
3360;DHT22;1693;49.602;11.046;2023-08-31T13:53:18;28.20;78.00
3360;DHT22;1693;49.602;11.046;2023-08-31T13:58:12;28.70;76.00
3360;DHT22;1693;49.602;11.046;2023-08-31T14:00:40;28.60;74.60
3360;DHT22;1693;49.602;11.046;2023-08-31T14:03:09;28.10;75.70
3360;DHT22;1693;49.602;11.046;2023-08-31T14:05:37;28.60;72.90
3360;DHT22;1693;49.602;11.046;2023-08-31T14:08:06;28.40;71.40
3360;DHT22;1693;49.602;11.046;2023-08-31T14:10:32;28.90;73.00
3360;DHT22;1693;49.602;11.046;2023-08-31T14:12:59;28.90;70.90
3360;DHT22;1693;49.602;11.046;2023-08-31T14:15:26;30.00;69.00
3360;DHT22;1693;49.602;11.046;2023-08-31T14:17:53;28.70;70.60
3360;DHT22;1693;49.602;11.046;2023-08-31T14:20:21;28.50;68.80
3360;DHT22;1693;49.602;11.046;2023-08-31T14:22:48;28.40;70.70
3360;DHT22;1693;49.602;11.046;2023-08-31T14:25:17;28.00;70.40
3360;DHT22;1693;49.602;11.046;2023-08-31T14:27:46;27.50;70.20
3360;DHT22;1693;49.602;11.046;2023-08-31T14:30:13;26.30;73.90
3360;DHT22;1693;49.602;11.046;2023-08-31T14:32:41;26.20;69.60
3360;DHT22;1693;49.602;11.046;2023-08-31T14:35:08;25.40;67.30
3360;DHT22;1693;49.602;11.046;2023-08-31T14:37:35;24.90;77.40
3360;DHT22;1693;49.602;11.046;2023-08-31T14:40:05;24.80;76.50
3360;DHT22;1693;49.602;11.046;2023-08-31T14:42:34;24.60;78.50
3360;DHT22;1693;49.602;11.046;2023-08-31T14:45:01;24.80;78.10
3360;DHT22;1693;49.602;11.046;2023-08-31T14:47:28;25.40;83.50
3360;DHT22;1693;49.602;11.046;2023-08-31T14:49:55;27.10;66.20
3360;DHT22;1693;49.602;11.046;2023-08-31T14:52:22;28.10;62.40
3360;DHT22;1693;49.602;11.046;2023-08-31T14:54:50;27.80;60.70
3360;DHT22;1693;49.602;11.046;2023-08-31T14:57:17;28.20;61.90
3360;DHT22;1693;49.602;11.046;2023-08-31T14:59:45;28.30;61.70
3360;DHT22;1693;49.602;11.046;2023-08-31T15:02:12;28.30;59.80
3360;DHT22;1693;49.602;11.046;2023-08-31T15:04:41;27.80;60.00
3360;DHT22;1693;49.602;11.046;2023-08-31T15:07:09;27.30;60.60
3360;DHT22;1693;49.602;11.046;2023-08-31T15:09:37;26.30;61.80
3360;DHT22;1693;49.602;11.046;2023-08-31T15:12:04;25.80;65.00
3360;DHT22;1693;49.602;11.046;2023-08-31T15:17:00;26.60;62.30
3360;DHT22;1693;49.602;11.046;2023-08-31T15:19:27;25.60;63.50
3360;DHT22;1693;49.602;11.046;2023-08-31T15:21:54;25.60;64.60
3360;DHT22;1693;49.602;11.046;2023-08-31T15:24:22;26.00;64.80
3360;DHT22;1693;49.602;11.046;2023-08-31T15:26:49;25.60;62.40
3360;DHT22;1693;49.602;11.046;2023-08-31T15:29:16;24.60;63.50
3360;DHT22;1693;49.602;11.046;2023-08-31T15:31:43;24.90;65.90
3360;DHT22;1693;49.602;11.046;2023-08-31T15:34:11;25.40;64.50
3360;DHT22;1693;49.602;11.046;2023-08-31T15:36:39;25.20;64.70
3360;DHT22;1693;49.602;11.046;2023-08-31T15:39:06;25.10;65.60
3360;DHT22;1693;49.602;11.046;2023-08-31T15:41:36;24.90;66.20
3360;DHT22;1693;49.602;11.046;2023-08-31T15:44:03;24.80;66.00
3360;DHT22;1693;49.602;11.046;2023-08-31T15:46:30;24.70;66.90
3360;DHT22;1693;49.602;11.046;2023-08-31T15:48:57;24.90;67.30
3360;DHT22;1693;49.602;11.046;2023-08-31T15:51:25;25.60;67.40
3360;DHT22;1693;49.602;11.046;2023-08-31T15:53:54;25.40;72.00
3360;DHT22;1693;49.602;11.046;2023-08-31T15:56:21;25.20;66.90
3360;DHT22;1693;49.602;11.046;2023-08-31T15:58:48;25.80;66.30
3360;DHT22;1693;49.602;11.046;2023-08-31T21:56:59;14.10;99.90
3360;DHT22;1693;49.602;11.046;2023-08-31T21:59:26;14.10;99.90
3360;DHT22;1693;49.602;11.046;2023-08-31T22:01:55;14.10;99.90
3360;DHT22;1693;49.602;11.046;2023-08-31T22:04:24;14.10;99.90
3360;DHT22;1693;49.602;11.046;2023-08-31T22:06:53;14.10;99.90
3360;DHT22;1693;49.602;11.046;2023-08-31T22:09:22;14.30;99.90
3360;DHT22;1693;49.602;11.046;2023-08-31T22:11:49;14.40;99.90
3360;DHT22;1693;49.602;11.046;2023-08-31T22:14:16;14.40;99.90
3360;DHT22;1693;49.602;11.046;2023-08-31T22:16:44;14.40;99.90
3360;DHT22;1693;49.602;11.046;2023-08-31T22:19:11;14.50;99.90
3360;DHT22;1693;49.602;11.046;2023-08-31T22:21:38;14.60;99.90
3360;DHT22;1693;49.602;11.046;2023-08-31T22:24:06;14.70;99.90
3360;DHT22;1693;49.602;11.046;2023-08-31T22:26:34;14.70;99.90
3360;DHT22;1693;49.602;11.046;2023-08-31T22:29:01;14.80;99.90
3360;DHT22;1693;49.602;11.046;2023-08-31T22:31:29;14.80;99.90
3360;DHT22;1693;49.602;11.046;2023-08-31T22:33:56;14.90;99.90
3360;DHT22;1693;49.602;11.046;2023-08-31T22:36:23;15.00;99.90
3360;DHT22;1693;49.602;11.046;2023-08-31T22:38:50;14.90;99.90
3360;DHT22;1693;49.602;11.046;2023-08-31T22:41:17;14.90;99.90
3360;DHT22;1693;49.602;11.046;2023-08-31T22:43:45;14.80;99.90
3360;DHT22;1693;49.602;11.046;2023-08-31T22:46:12;14.60;99.90
3360;DHT22;1693;49.602;11.046;2023-08-31T22:48:39;14.60;99.90
3360;DHT22;1693;49.602;11.046;2023-08-31T22:51:06;14.50;99.90
3360;DHT22;1693;49.602;11.046;2023-08-31T22:53:33;14.50;99.90
3360;DHT22;1693;49.602;11.046;2023-08-31T22:56:00;14.50;99.90
3360;DHT22;1693;49.602;11.046;2023-08-31T22:58:28;14.40;99.90
3360;DHT22;1693;49.602;11.046;2023-08-31T23:00:57;14.40;99.90
3360;DHT22;1693;49.602;11.046;2023-08-31T23:03:24;14.40;99.90
3360;DHT22;1693;49.602;11.046;2023-08-31T23:05:50;14.40;99.90
3360;DHT22;1693;49.602;11.046;2023-08-31T23:08:18;14.50;99.90
3360;DHT22;1693;49.602;11.046;2023-08-31T23:10:45;14.60;99.90
3360;DHT22;1693;49.602;11.046;2023-08-31T23:13:11;14.60;99.90
3360;DHT22;1693;49.602;11.046;2023-08-31T23:15:39;14.60;99.90
3360;DHT22;1693;49.602;11.046;2023-08-31T23:18:08;14.60;99.90
3360;DHT22;1693;49.602;11.046;2023-08-31T23:20:35;14.50;99.90
3360;DHT22;1693;49.602;11.046;2023-08-31T23:23:02;14.50;99.90
3360;DHT22;1693;49.602;11.046;2023-08-31T23:25:29;14.40;99.90
3360;DHT22;1693;49.602;11.046;2023-08-31T23:27:56;14.30;99.90
3360;DHT22;1693;49.602;11.046;2023-08-31T23:30:22;14.30;99.90
3360;DHT22;1693;49.602;11.046;2023-08-31T23:32:49;14.20;99.90
3360;DHT22;1693;49.602;11.046;2023-08-31T23:35:18;14.20;99.90
3360;DHT22;1693;49.602;11.046;2023-08-31T23:37:45;14.10;99.90
3360;DHT22;1693;49.602;11.046;2023-08-31T23:40:12;14.10;99.90
3360;DHT22;1693;49.602;11.046;2023-08-31T23:42:39;14.10;99.90
3360;DHT22;1693;49.602;11.046;2023-08-31T23:45:07;14.00;99.90
3360;DHT22;1693;49.602;11.046;2023-08-31T23:47:34;14.00;99.90
3360;DHT22;1693;49.602;11.046;2023-08-31T23:50:01;13.90;99.90
3360;DHT22;1693;49.602;11.046;2023-08-31T23:52:29;13.90;99.90
3360;DHT22;1693;49.602;11.046;2023-08-31T23:54:57;13.80;99.90
3360;DHT22;1693;49.602;11.046;2023-08-31T23:57:25;13.80;99.90
3360;DHT22;1693;49.602;11.046;2023-08-31T23:59:52;14.00;99.90
